createdAt,value
2018-12-10T00:01:47.685Z,7.00
2018-12-10T00:04:15.133Z,7.10
2018-12-10T00:06:42.629Z,7.10
2018-12-10T00:09:10.130Z,7.10
2018-12-10T00:11:37.546Z,7.20
2018-12-10T00:14:05.018Z,7.20
2018-12-10T00:16:32.582Z,7.20
2018-12-10T00:19:00.153Z,7.10
2018-12-10T00:21:27.626Z,7.10
2018-12-10T00:23:55.098Z,7.10
2018-12-10T00:26:22.534Z,7.10
2018-12-10T00:28:49.962Z,7.10
2018-12-10T00:31:17.518Z,7.10
2018-12-10T00:33:44.938Z,7.00
2018-12-10T00:36:12.446Z,7.00
2018-12-10T00:38:39.919Z,7.00
2018-12-10T00:41:07.426Z,6.90
2018-12-10T00:43:34.862Z,6.80
2018-12-10T00:46:02.346Z,6.80
2018-12-10T00:48:29.907Z,6.80
2018-12-10T00:50:57.478Z,6.80
2018-12-10T00:53:24.899Z,6.70
2018-12-10T00:55:52.381Z,6.70
2018-12-10T00:58:19.804Z,6.60
2018-12-10T01:00:47.274Z,6.50
2018-12-10T01:03:14.749Z,6.40
2018-12-10T01:05:42.222Z,6.30
2018-12-10T01:08:09.658Z,6.30
2018-12-10T01:10:37.078Z,6.20
2018-12-10T01:13:04.490Z,6.20
2018-12-10T01:15:31.988Z,6.10
2018-12-10T01:17:59.450Z,6.10
2018-12-10T01:20:26.935Z,6.20
2018-12-10T01:22:54.485Z,6.10
2018-12-10T01:25:22.060Z,6.20
2018-12-10T01:27:49.545Z,6.30
2018-12-10T01:30:17.111Z,6.30
2018-12-10T01:32:44.681Z,6.40
2018-12-10T01:35:12.182Z,6.50
2018-12-10T01:37:39.723Z,6.50
2018-12-10T01:40:07.198Z,6.50
2018-12-10T01:42:34.767Z,6.50
2018-12-10T01:45:02.270Z,6.50
2018-12-10T01:47:29.756Z,6.40
2018-12-10T01:49:57.282Z,6.30
2018-12-10T01:52:24.758Z,6.20
2018-12-10T01:54:52.252Z,6.20
2018-12-10T01:57:19.737Z,6.30
2018-12-10T01:59:47.238Z,6.30
2018-12-10T02:02:14.737Z,6.20
2018-12-10T02:04:42.249Z,6.20
2018-12-10T02:07:09.778Z,6.10
2018-12-10T02:09:37.174Z,6.10
2018-12-10T02:12:04.678Z,6.10
2018-12-10T02:14:32.082Z,6.10
2018-12-10T02:16:59.657Z,6.10
2018-12-10T02:19:27.065Z,6.20
2018-12-10T02:21:54.485Z,6.10
2018-12-10T02:24:21.967Z,6.10
2018-12-10T02:26:49.461Z,6.00
2018-12-10T02:29:17.002Z,6.00
2018-12-10T02:31:44.502Z,6.00
2018-12-10T02:34:12.162Z,5.90
2018-12-10T02:36:39.727Z,5.90
2018-12-10T02:39:07.303Z,5.80
2018-12-10T02:41:34.871Z,5.80
2018-12-10T02:44:02.294Z,5.70
2018-12-10T02:46:29.799Z,5.80
2018-12-10T02:48:57.284Z,5.80
2018-12-10T02:51:24.773Z,5.80
2018-12-10T02:53:52.246Z,5.70
2018-12-10T02:56:19.745Z,5.70
2018-12-10T02:58:47.269Z,5.80
2018-12-10T03:01:14.739Z,5.80
2018-12-10T03:03:42.145Z,5.80
2018-12-10T03:06:09.543Z,5.90
2018-12-10T03:08:37.033Z,5.90
2018-12-10T03:11:04.519Z,5.90
2018-12-10T03:13:32.006Z,5.90
2018-12-10T03:15:59.471Z,6.00
2018-12-10T03:18:26.957Z,6.00
2018-12-10T03:20:54.430Z,6.00
2018-12-10T03:23:21.915Z,6.10
2018-12-10T03:25:49.438Z,6.10
2018-12-10T03:28:16.858Z,6.10
2018-12-10T03:30:44.339Z,6.10
2018-12-10T03:33:11.823Z,6.10
2018-12-10T03:35:39.314Z,6.20
2018-12-10T03:38:06.749Z,6.30
2018-12-10T03:40:34.226Z,6.40
2018-12-10T03:43:01.727Z,6.40
2018-12-10T03:45:29.240Z,6.40
2018-12-10T03:47:56.719Z,6.30
2018-12-10T03:50:24.244Z,6.30
2018-12-10T03:52:51.674Z,6.30
2018-12-10T03:55:19.070Z,6.30
2018-12-10T03:57:46.541Z,6.30
2018-12-10T04:00:13.950Z,6.20
2018-12-10T04:02:41.369Z,6.00
2018-12-10T04:05:09.582Z,5.90
2018-12-10T04:07:37.054Z,5.80
2018-12-10T04:10:05.550Z,5.70
2018-12-10T04:12:33.590Z,5.70
2018-12-10T04:15:01.030Z,5.60
2018-12-10T04:17:28.446Z,5.60
2018-12-10T04:19:55.942Z,5.50
2018-12-10T04:22:23.434Z,5.40
2018-12-10T04:24:50.870Z,5.40
2018-12-10T04:27:18.266Z,5.40
2018-12-10T04:29:45.743Z,5.40
2018-12-10T04:32:13.203Z,5.30
2018-12-10T04:34:40.673Z,5.30
2018-12-10T04:37:08.178Z,5.30
2018-12-10T04:39:35.584Z,5.30
2018-12-10T04:42:03.088Z,5.40
2018-12-10T04:44:30.591Z,5.50
2018-12-10T04:46:58.059Z,5.60
2018-12-10T04:49:25.529Z,5.60
2018-12-10T04:51:53.033Z,5.50
2018-12-10T04:54:20.538Z,5.60
2018-12-10T04:56:48.048Z,5.60
2018-12-10T04:59:15.566Z,5.70
2018-12-10T05:01:43.073Z,5.70
2018-12-10T05:04:10.583Z,5.60
2018-12-10T05:06:38.061Z,5.50
2018-12-10T05:09:06.164Z,5.50
2018-12-10T05:11:33.634Z,5.40
2018-12-10T05:14:01.207Z,5.40
2018-12-10T05:16:28.781Z,5.40
2018-12-10T05:18:56.246Z,5.30
2018-12-10T05:21:23.718Z,5.30
2018-12-10T05:23:51.191Z,5.30
2018-12-10T05:26:18.621Z,5.30
2018-12-10T05:28:46.099Z,5.30
2018-12-10T05:31:13.527Z,5.30
2018-12-10T05:33:40.938Z,5.40
2018-12-10T05:36:08.353Z,5.40
2018-12-10T05:38:35.847Z,5.40
2018-12-10T05:41:03.281Z,5.40
2018-12-10T05:43:30.778Z,5.40
2018-12-10T05:45:58.203Z,5.40
2018-12-10T05:48:25.674Z,5.40
2018-12-10T05:50:53.159Z,5.30
2018-12-10T05:53:20.558Z,5.20
2018-12-10T05:55:48.046Z,5.20
2018-12-10T05:58:15.516Z,5.20
2018-12-10T06:00:43.033Z,5.10
2018-12-10T06:03:10.512Z,5.00
2018-12-10T06:05:37.933Z,5.00
2018-12-10T06:08:05.351Z,4.90
2018-12-10T06:10:32.758Z,4.90
2018-12-10T06:13:00.230Z,4.90
2018-12-10T06:15:27.642Z,4.80
2018-12-10T06:17:55.117Z,4.80
2018-12-10T06:20:22.526Z,4.80
2018-12-10T06:22:50.002Z,4.80
2018-12-10T06:25:17.439Z,4.80
2018-12-10T06:27:45.006Z,4.80
2018-12-10T06:30:12.578Z,4.90
2018-12-10T06:32:39.990Z,5.00
2018-12-10T06:35:07.812Z,5.00
2018-12-10T06:37:37.715Z,5.10
2018-12-10T06:40:05.433Z,5.00
2018-12-10T06:42:32.854Z,5.00
2018-12-10T06:45:00.361Z,5.00
2018-12-10T06:47:27.938Z,4.90
2018-12-10T06:49:55.406Z,4.90
2018-12-10T06:52:22.824Z,4.90
2018-12-10T06:54:50.298Z,4.80
2018-12-10T06:57:17.714Z,4.80
2018-12-10T06:59:45.218Z,4.70
2018-12-10T07:02:12.643Z,4.70
2018-12-10T07:04:40.150Z,4.70
2018-12-10T07:07:07.569Z,4.70
2018-12-10T07:09:35.077Z,4.70
2018-12-10T07:12:02.584Z,4.80
2018-12-10T07:14:29.989Z,4.90
2018-12-10T07:16:57.393Z,5.00
2018-12-10T07:19:24.853Z,5.00
2018-12-10T07:21:52.285Z,5.00
2018-12-10T07:24:19.765Z,5.10
2018-12-10T07:26:47.266Z,5.10
2018-12-10T07:29:14.820Z,5.10
2018-12-10T07:31:42.301Z,5.10
2018-12-10T07:34:09.836Z,5.10
2018-12-10T07:36:37.325Z,5.20
2018-12-10T07:39:05.845Z,5.30
2018-12-10T07:41:33.341Z,5.20
2018-12-10T07:44:00.766Z,5.30
2018-12-10T07:46:28.162Z,5.40
2018-12-10T07:48:55.727Z,5.50
2018-12-10T07:51:23.299Z,5.50
2018-12-10T07:53:50.870Z,5.50
2018-12-10T07:56:18.302Z,5.50
2018-12-10T07:58:45.790Z,5.40
2018-12-10T08:01:13.302Z,5.30
2018-12-10T08:03:40.723Z,5.30
2018-12-10T08:06:08.218Z,5.30
2018-12-10T08:08:35.701Z,5.20
2018-12-10T08:11:03.261Z,5.20
2018-12-10T08:13:30.699Z,5.20
2018-12-10T08:15:58.308Z,5.20
2018-12-10T08:18:25.714Z,5.30
2018-12-10T08:21:01.906Z,5.30
2018-12-10T08:23:22.524Z,5.40
2018-12-10T08:25:50.010Z,5.50
2018-12-10T08:28:17.419Z,5.60
2018-12-10T08:30:44.922Z,5.70
2018-12-10T08:33:12.387Z,5.90
2018-12-10T08:38:09.262Z,5.90
2018-12-10T08:40:12.509Z,5.90
2018-12-10T08:40:36.765Z,6.00
2018-12-10T08:43:04.186Z,6.00
2018-12-10T08:45:31.689Z,6.10
2018-12-10T08:47:59.186Z,6.20
2018-12-10T08:50:26.614Z,6.10
2018-12-10T08:52:54.106Z,6.10
2018-12-10T08:55:21.598Z,6.10
2018-12-10T08:57:49.196Z,6.10
2018-12-10T09:00:16.682Z,6.20
2018-12-10T09:02:44.189Z,6.40
2018-12-10T09:05:11.621Z,6.50
2018-12-10T09:07:39.118Z,6.70
2018-12-10T09:10:06.710Z,7.10
2018-12-10T09:12:34.198Z,7.50
2018-12-10T09:15:01.679Z,7.70
2018-12-10T09:17:29.266Z,7.80
2018-12-10T09:19:56.745Z,7.90
2018-12-10T09:22:24.175Z,8.90
2018-12-10T09:24:51.691Z,11.00
2018-12-10T09:27:19.102Z,12.70
2018-12-10T09:29:46.581Z,12.70
2018-12-10T09:32:14.077Z,11.90
2018-12-10T09:34:41.512Z,10.90
2018-12-10T09:37:09.015Z,10.10
2018-12-10T09:39:36.439Z,9.50
2018-12-10T09:42:03.973Z,9.00
2018-12-10T09:44:31.397Z,9.40
2018-12-10T09:46:59.257Z,10.40
2018-12-10T09:49:26.889Z,12.40
2018-12-10T09:51:54.303Z,14.20
2018-12-10T09:54:21.781Z,16.10
2018-12-10T09:56:49.197Z,17.30
2018-12-10T09:59:16.696Z,18.20
2018-12-10T10:01:44.177Z,18.60
2018-12-10T10:04:11.613Z,17.70
2018-12-10T10:06:39.029Z,16.70
2018-12-10T10:09:06.670Z,16.80
2018-12-10T10:11:34.096Z,16.40
2018-12-10T10:14:01.601Z,16.80
2018-12-10T10:16:29.089Z,17.90
2018-12-10T10:18:56.594Z,17.70
2018-12-10T10:21:24.092Z,16.10
2018-12-10T10:23:51.511Z,14.50
2018-12-10T10:26:18.995Z,13.30
2018-12-10T10:28:46.490Z,12.20
2018-12-10T10:31:13.986Z,11.40
2018-12-10T10:33:41.412Z,10.90
2018-12-10T10:36:08.906Z,10.40
2018-12-10T10:38:36.329Z,10.10
2018-12-10T10:41:03.762Z,10.00
2018-12-10T10:43:31.272Z,9.70
2018-12-10T10:45:58.762Z,9.50
2018-12-10T10:48:26.186Z,9.40
2018-12-10T10:50:53.694Z,9.30
2018-12-10T10:53:21.101Z,9.30
2018-12-10T10:55:48.530Z,9.10
2018-12-10T10:58:16.002Z,9.60
2018-12-10T11:00:49.105Z,10.50
2018-12-10T11:03:22.322Z,11.70
2018-12-10T11:05:49.782Z,13.00
2018-12-10T11:08:17.200Z,14.20
2018-12-10T11:10:44.775Z,14.80
2018-12-10T11:13:12.261Z,14.00
2018-12-10T11:15:39.687Z,14.00
2018-12-10T11:18:07.201Z,13.50
2018-12-10T11:20:34.638Z,13.20
2018-12-10T11:23:02.134Z,12.70
2018-12-10T11:25:29.642Z,12.50
2018-12-10T11:27:57.137Z,12.00
2018-12-10T11:30:24.577Z,11.30
2018-12-10T11:32:52.001Z,10.70
2018-12-10T11:35:19.422Z,10.40
2018-12-10T11:37:46.827Z,10.50
2018-12-10T11:40:14.258Z,10.50
2018-12-10T11:42:41.772Z,10.30
2018-12-10T11:45:10.141Z,9.90
2018-12-10T11:47:37.551Z,9.70
2018-12-10T11:50:05.536Z,9.80
2018-12-10T11:52:33.102Z,11.10
2018-12-10T11:55:00.589Z,12.70
2018-12-10T11:57:28.042Z,13.10
2018-12-10T11:59:55.526Z,12.90
2018-12-10T12:02:29.700Z,13.50
2018-12-10T12:04:52.402Z,13.30
2018-12-10T12:07:19.971Z,12.80
2018-12-10T12:09:47.442Z,12.30
2018-12-10T12:12:14.914Z,12.90
2018-12-10T12:14:42.398Z,13.80
2018-12-10T12:17:09.913Z,14.20
2018-12-10T12:19:37.342Z,13.70
2018-12-10T12:22:05.252Z,13.60
2018-12-10T12:24:32.766Z,14.90
2018-12-10T12:27:00.346Z,16.00
2018-12-10T12:29:27.854Z,17.30
2018-12-10T12:31:55.390Z,18.50
2018-12-10T12:34:22.862Z,19.30
2018-12-10T12:36:50.337Z,19.60
2018-12-10T12:39:17.803Z,19.60
2018-12-10T12:41:45.374Z,20.30
2018-12-10T12:44:12.846Z,21.00
2018-12-10T12:46:40.274Z,19.90
2018-12-10T12:49:07.769Z,17.90
2018-12-10T12:51:35.245Z,16.00
2018-12-10T12:54:02.725Z,14.10
2018-12-10T12:56:30.152Z,12.70
2018-12-10T12:58:57.582Z,11.80
2018-12-10T13:01:25.139Z,11.10
2018-12-10T13:03:52.725Z,10.80
2018-12-10T13:06:20.187Z,10.50
2018-12-10T13:08:47.686Z,10.40
2018-12-10T13:11:15.186Z,10.20
2018-12-10T13:13:42.799Z,10.20
2018-12-10T13:16:10.282Z,9.90
2018-12-10T13:18:37.738Z,9.70
2018-12-10T13:21:05.160Z,9.50
2018-12-10T13:23:32.677Z,9.30
2018-12-10T13:26:00.089Z,9.10
2018-12-10T13:28:27.582Z,9.00
2018-12-10T13:30:55.087Z,8.80
2018-12-10T13:33:22.574Z,8.60
2018-12-10T13:35:50.050Z,8.50
2018-12-10T13:38:17.593Z,8.30
2018-12-10T13:40:45.086Z,8.20
2018-12-10T13:43:12.506Z,8.10
2018-12-10T13:45:39.989Z,8.00
2018-12-10T13:48:07.590Z,8.00
2018-12-10T13:50:35.077Z,8.10
2018-12-10T13:53:02.526Z,8.10
2018-12-10T13:55:30.007Z,8.00
2018-12-10T13:57:57.566Z,8.20
2018-12-10T14:00:25.008Z,8.40
2018-12-10T14:02:52.506Z,8.20
2018-12-10T14:05:19.978Z,8.10
2018-12-10T14:07:48.340Z,8.10
2018-12-10T14:10:16.046Z,8.10
2018-12-10T14:12:43.518Z,8.20
2018-12-10T14:15:10.950Z,8.30
2018-12-10T14:17:38.460Z,8.30
2018-12-10T14:20:06.129Z,8.40
2018-12-10T14:22:33.619Z,8.40
2018-12-10T14:25:01.118Z,8.40
2018-12-10T14:27:28.642Z,8.30
2018-12-10T14:29:56.078Z,8.30
2018-12-10T14:32:23.570Z,8.20
2018-12-10T14:34:50.978Z,8.20
2018-12-10T14:37:18.402Z,8.20
2018-12-10T14:39:45.894Z,8.20
2018-12-10T14:42:20.702Z,8.30
2018-12-10T14:44:48.206Z,8.20
2018-12-10T14:47:15.703Z,8.20
2018-12-10T14:49:43.250Z,8.30
2018-12-10T14:52:10.657Z,8.30
2018-12-10T14:54:38.069Z,8.20
2018-12-10T14:57:05.562Z,8.20
2018-12-10T14:59:33.130Z,8.10
2018-12-10T15:02:00.707Z,8.10
2018-12-10T15:04:28.279Z,8.10
2018-12-10T15:06:55.746Z,8.10
2018-12-10T15:09:23.229Z,8.00
2018-12-10T15:11:50.654Z,8.00
2018-12-10T15:14:18.158Z,7.90
2018-12-10T15:16:45.602Z,7.90
2018-12-10T15:19:13.093Z,7.80
2018-12-10T15:21:40.571Z,7.80
2018-12-10T15:24:07.986Z,7.80
2018-12-10T15:26:35.479Z,7.80
2018-12-10T15:29:02.910Z,7.70
2018-12-10T15:31:30.386Z,7.70
2018-12-10T15:33:57.878Z,7.60
2018-12-10T15:36:25.375Z,7.50
2018-12-10T15:38:52.858Z,7.30
2018-12-10T15:41:20.434Z,7.20
2018-12-10T15:43:47.946Z,6.90
2018-12-10T15:46:15.475Z,6.80
2018-12-10T15:48:43.050Z,6.70
2018-12-10T15:51:10.518Z,6.50
2018-12-10T15:53:37.994Z,6.40
2018-12-10T15:56:05.502Z,6.30
2018-12-10T15:58:32.973Z,6.30
2018-12-10T16:01:00.386Z,6.30
2018-12-10T16:03:27.879Z,6.30
2018-12-10T16:05:55.442Z,6.30
2018-12-10T16:08:22.843Z,6.30
2018-12-10T16:10:50.262Z,6.30
2018-12-10T16:13:17.754Z,6.30
2018-12-10T16:15:45.222Z,6.30
2018-12-10T16:18:12.795Z,6.20
2018-12-10T16:20:40.286Z,6.10
2018-12-10T16:23:07.834Z,6.10
2018-12-10T16:25:35.410Z,6.00
2018-12-10T16:28:02.874Z,6.00
2018-12-10T16:30:30.611Z,6.00
2018-12-10T16:32:58.333Z,6.00
2018-12-10T16:35:25.909Z,5.90
2018-12-10T16:37:53.375Z,5.90
2018-12-10T16:40:20.849Z,5.90
2018-12-10T16:42:48.426Z,5.90
2018-12-10T16:45:15.922Z,5.80
2018-12-10T16:47:43.329Z,5.80
2018-12-10T16:50:10.830Z,5.70
2018-12-10T16:52:38.338Z,5.60
2018-12-10T16:55:06.175Z,5.60
2018-12-10T16:57:33.585Z,5.50
2018-12-10T17:00:01.074Z,5.40
2018-12-10T17:02:28.573Z,5.40
2018-12-10T17:04:55.990Z,5.30
2018-12-10T17:07:23.394Z,5.30
2018-12-10T17:09:50.826Z,5.30
2018-12-10T17:12:18.309Z,5.20
2018-12-10T17:14:45.784Z,5.10
2018-12-10T17:17:13.249Z,5.10
2018-12-10T17:19:40.786Z,5.00
2018-12-10T17:22:08.270Z,5.00
2018-12-10T17:24:35.811Z,4.90
2018-12-10T17:27:03.269Z,4.80
2018-12-10T17:29:30.689Z,4.80
2018-12-10T17:31:58.202Z,4.70
2018-12-10T17:34:25.618Z,4.70
2018-12-10T17:36:53.008Z,4.70
2018-12-10T17:39:20.491Z,4.60
2018-12-10T17:41:48.010Z,4.60
2018-12-10T17:44:15.417Z,4.60
2018-12-10T17:46:42.823Z,4.60
2018-12-10T17:49:10.322Z,4.60
2018-12-10T17:51:37.810Z,4.60
2018-12-10T17:54:05.245Z,4.60
2018-12-10T17:56:32.695Z,4.70
2018-12-10T17:59:00.203Z,4.70
2018-12-10T18:01:27.695Z,4.80
2018-12-10T18:03:55.162Z,4.90
2018-12-10T18:06:22.718Z,4.90
2018-12-10T18:08:50.142Z,4.80
2018-12-10T18:11:17.633Z,4.80
2018-12-10T18:13:45.094Z,4.90
2018-12-10T18:16:12.520Z,4.90
2018-12-10T18:18:40.079Z,4.90
2018-12-10T18:21:07.483Z,4.80
2018-12-10T18:23:34.973Z,4.80
2018-12-10T18:26:02.466Z,4.80
2018-12-10T18:28:29.859Z,4.80
2018-12-10T18:30:57.385Z,4.80
2018-12-10T18:33:24.813Z,4.70
2018-12-10T18:35:52.747Z,4.70
2018-12-10T18:38:20.214Z,4.70
2018-12-10T18:40:47.713Z,4.70
2018-12-10T18:43:15.181Z,4.70
2018-12-10T18:45:42.587Z,4.70
2018-12-10T18:48:10.042Z,4.70
2018-12-10T18:50:37.564Z,4.80
2018-12-10T18:53:05.033Z,5.00
2018-12-10T18:55:32.502Z,5.10
2018-12-10T18:57:59.911Z,5.20
2018-12-10T19:00:27.415Z,5.30
2018-12-10T19:02:54.890Z,5.30
2018-12-10T19:05:24.285Z,5.40
2018-12-10T19:07:51.690Z,5.40
2018-12-10T19:10:19.182Z,5.40
2018-12-10T19:12:46.670Z,5.40
2018-12-10T19:15:14.069Z,5.40
2018-12-10T19:17:41.514Z,5.50
2018-12-10T19:20:13.655Z,5.50
2018-12-10T19:22:38.375Z,5.50
2018-12-10T19:25:06.012Z,5.50
2018-12-10T19:27:33.526Z,5.50
2018-12-10T19:30:01.019Z,5.60
2018-12-10T19:32:28.500Z,5.50
2018-12-10T19:34:55.991Z,5.50
2018-12-10T19:37:23.426Z,5.50
2018-12-10T19:39:50.895Z,5.40
2018-12-10T19:42:18.466Z,5.20
2018-12-10T19:44:45.905Z,5.20
2018-12-10T19:47:13.333Z,5.20
2018-12-10T19:49:40.828Z,5.20
2018-12-10T19:52:08.302Z,5.20
2018-12-10T19:54:35.793Z,5.20
2018-12-10T19:57:03.395Z,5.30
2018-12-10T19:59:30.873Z,5.30
2018-12-10T20:01:58.323Z,5.40
2018-12-10T20:04:25.809Z,5.40
2018-12-10T20:06:58.898Z,5.40
2018-12-10T20:09:26.369Z,5.30
2018-12-10T20:11:53.781Z,5.30
2018-12-10T20:14:21.218Z,5.20
2018-12-10T20:16:48.697Z,5.10
2018-12-10T20:19:16.122Z,5.00
2018-12-10T20:21:43.622Z,5.00
2018-12-10T20:24:11.039Z,5.00
2018-12-10T20:26:38.492Z,4.90
2018-12-10T20:29:05.971Z,4.90
2018-12-10T20:31:33.736Z,4.90
2018-12-10T20:34:01.214Z,4.80
2018-12-10T20:36:29.491Z,4.80
2018-12-10T20:38:57.250Z,4.80
2018-12-10T20:41:24.657Z,4.80
2018-12-10T20:43:52.171Z,4.80
2018-12-10T20:46:19.660Z,4.80
2018-12-10T20:48:47.133Z,4.80
2018-12-10T20:51:14.514Z,4.80
2018-12-10T20:53:41.929Z,4.80
2018-12-10T20:56:09.360Z,4.80
2018-12-10T20:58:36.820Z,4.70
2018-12-10T21:01:04.314Z,4.70
2018-12-10T21:03:31.782Z,4.70
2018-12-10T21:09:03.983Z,4.70
2018-12-10T21:11:31.434Z,4.60
2018-12-10T21:13:58.902Z,4.60
2018-12-10T21:16:26.359Z,4.70
2018-12-10T21:18:53.761Z,4.70
2018-12-10T21:21:21.186Z,4.70
2018-12-10T21:23:48.601Z,4.80
2018-12-10T21:26:16.021Z,4.80
2018-12-10T21:28:43.594Z,4.80
2018-12-10T21:31:10.996Z,4.80
2018-12-10T21:33:38.429Z,4.80
2018-12-10T21:36:05.853Z,4.80
2018-12-10T21:38:33.254Z,4.70
2018-12-10T21:41:00.784Z,4.60
2018-12-10T21:43:28.348Z,4.50
2018-12-10T21:45:55.919Z,4.60
2018-12-10T21:48:23.287Z,4.60
2018-12-10T21:50:50.691Z,4.70
2018-12-10T21:53:18.114Z,4.70
2018-12-10T21:55:45.520Z,4.80
2018-12-10T21:58:13.151Z,4.80
2018-12-10T22:00:40.578Z,4.80
2018-12-10T22:03:08.082Z,4.90
2018-12-10T22:05:35.513Z,5.00
2018-12-10T22:08:02.954Z,5.00
2018-12-10T22:10:30.422Z,5.10
2018-12-10T22:12:57.989Z,5.10
2018-12-10T22:15:25.458Z,5.10
2018-12-10T22:17:52.934Z,5.10
2018-12-10T22:20:20.406Z,5.00
2018-12-10T22:22:47.826Z,5.00
2018-12-10T22:25:15.281Z,5.00
2018-12-10T22:27:42.778Z,5.00
2018-12-10T22:30:10.195Z,5.00
2018-12-10T22:32:37.670Z,5.10
2018-12-10T22:35:05.573Z,5.10
2018-12-10T22:37:32.980Z,5.10
2018-12-10T22:40:00.466Z,5.20
2018-12-10T22:42:27.909Z,5.20
2018-12-10T22:44:55.402Z,5.20
2018-12-10T22:47:22.822Z,5.30
2018-12-10T22:49:50.278Z,5.40
2018-12-10T22:52:17.674Z,5.40
2018-12-10T22:54:45.146Z,5.40
2018-12-10T22:57:12.561Z,5.50
2018-12-10T22:59:39.979Z,5.50
2018-12-10T23:02:07.457Z,5.60
2018-12-10T23:04:34.866Z,5.60
2018-12-10T23:07:02.373Z,5.60
2018-12-10T23:09:29.778Z,5.60
2018-12-10T23:11:57.192Z,5.60
2018-12-10T23:14:24.662Z,5.70
2018-12-10T23:16:52.093Z,5.70
2018-12-10T23:19:19.518Z,5.70
2018-12-10T23:21:46.953Z,5.80
2018-12-10T23:24:14.360Z,5.70
2018-12-10T23:26:41.845Z,5.70
2018-12-10T23:29:09.337Z,5.80
2018-12-10T23:31:36.738Z,5.70
2018-12-10T23:34:04.173Z,5.70
2018-12-10T23:36:31.594Z,5.70
2018-12-10T23:38:58.993Z,5.70
2018-12-10T23:41:26.412Z,5.70
2018-12-10T23:43:53.833Z,5.70
2018-12-10T23:46:21.322Z,5.70
2018-12-10T23:48:48.734Z,5.70
2018-12-10T23:51:16.183Z,5.70
2018-12-10T23:53:43.655Z,5.70
2018-12-10T23:56:11.058Z,5.70
2018-12-10T23:58:38.542Z,5.70
